Nearby METAR Reports

 

KBFI - Seattle/Boeing, Washington, USA
Distance from station: S 4mi, 7km
Updated: 2018-10-21 00:53
Fog, Overcast
Fog, Overcast
 Wind from calm
Wind: Calm
Temperature: 46°F , 8°C
Dew Point: 46°F , 8°C
Humidity: 100%
Barometer: 30.05 inHg , 1017.6 hPa
Summary: Fog
Clouds: Overcast
Visibility: 1/8 mile , 0.2 km
Cloud details: Overcast 100 ft
2018/10/21 07:53 KBFI 210753Z 00000KT 1/8SM FG VV001 08/08 A3005 RMK AO2 SLP177 T00830078 401440061
KRNT - Renton, Washington, USA
Distance from station: SSE 9mi, 14km
Updated: 2018-10-21 01:00
Mostly cloudy
Mostly cloudy
 Wind from calm
Wind: Calm
Temperature: 43°F , 6°C
Dew Point: 39°F , 4°C
Humidity: 87%
Barometer: 30.05 inHg , 1017.6 hPa
Clouds: Mostly cloudy
Visibility: 5 miles , 8 km
Cloud details: Mostly cloudy 300 ft
2018/10/21 08:00 KRNT 210800Z AUTO 00000KT 5SM BKN003 06/04 A3005 RMK AO2 T00610044
 
KSEA - Seattle/Metro, Washington, USA
Distance from station: S 11mi, 18km
Updated: 2018-10-21 01:28
Fog, Overcast
Fog, Overcast
 Wind from NNE
Wind: NNE 5 mph , 7 km/h
Temperature: 46°F , 8°C
Wind Chill: 44°F , 7°C
Dew Point: 45°F , 7°C
Humidity: 93%
Barometer: 30.04 inHg , 1017.3 hPa
Summary: Fog
Clouds: Overcast
Visibility: 1/8 mile , 0.2 km
Cloud details: Overcast 100 ft
2018/10/21 08:28 KSEA 210828Z 03004KT 1/8SM FG VV001 08/07 A3004 RMK AO2 T00780067 RVRNO
KPAE - Everett, Washington, USA
Distance from station: N 21mi, 34km
Updated: 2018-10-21 00:53
Mist, Clear
Mist, Clear
 Wind from N
Wind: N 5 mph , 7 km/h
Temperature: 46°F , 8°C
Wind Chill: 44°F , 7°C
Dew Point: 46°F , 8°C
Humidity: 100%
Barometer: 30.05 inHg , 1017.6 hPa
Summary: Mist
Clouds: Clear
Visibility: 4 miles , 6 km
2018/10/21 07:53 KPAE 210753Z AUTO 35004KT 4SM BR CLR 08/08 A3005 RMK AO2 SLP177 T00780078 401220072
 
KPWT - Bremerton Ntnl, Washington, USA
Distance from station: WSW 22mi, 35km
Updated: 2018-10-21 01:29
Mist, Few clouds
Mist, Few clouds
 Wind from calm
Wind: Calm
Temperature: 36°F , 2°C
Dew Point: 34°F , 1°C
Humidity: 93%
Barometer: 30.04 inHg , 1017.3 hPa
Summary: Mist
Clouds: Few Clouds
Visibility: 1 1/4 miles , 2 km
Cloud details: Few Clouds 100 ft
2018/10/21 08:29 KPWT 210829Z AUTO 00000KT 1 1/4SM BR FEW001 02/01 A3004 RMK AO2 VIS 3/4V5 RAE14 P0000 FZRANO
KTIW - Tacoma, Washington, USA
Distance from station: SSW 27mi, 43km
Updated: 2018-10-21 01:01
Fog, Overcast
Fog, Overcast
 Wind from calm
Wind: Calm
Temperature: 45°F , 7°C
Dew Point: 45°F , 7°C
Humidity: 100%
Barometer: 30.04 inHg , 1017.3 hPa
Summary: Fog
Clouds: Overcast
Visibility: 1/4 mile , 0.4 km
Cloud details: Overcast 100 ft
2018/10/21 08:01 KTIW 210801Z AUTO 00000KT 1/4SM FG VV001 07/07 A3004 RMK AO2 T00670067
 
KTCM - Tacoma/Mc Chord, Washington, USA
Distance from station: S 35mi, 56km
Updated: 2018-10-21 01:08
Fog, Overcast
Fog, Overcast
 Wind from calm
Wind: Calm
Temperature: 39°F , 4°C
Dew Point: 39°F , 4°C
Humidity: 100%
Barometer: 30.05 inHg , 1017.6 hPa
Summary: Fog
Clouds: Overcast
Visibility: 1/2 mile , 0.8 km
Cloud details: Overcast 100 ft
2018/10/21 08:08 KTCM 210808Z 00000KT 1/2SM R34/3000V4000FT FG VV001 04/04 A3005 RMK AO2A VIS 1/8 RWY16 CIG 000 RWY16 SLP181 $
KPLU - Puyallup/Thun, Washington, USA
Distance from station: S 35mi, 57km
Updated: 2018-10-21 01:15
Fog, Overcast
Fog, Overcast
 Wind from calm
Wind: Calm
Temperature: 37°F , 3°C
Dew Point: 37°F , 3°C
Humidity: 100%
Barometer: 30.04 inHg , 1017.3 hPa
Summary: Fog
Clouds: Overcast
Visibility: 1/4 mile , 0.4 km
Cloud details: Overcast 200 ft
2018/10/21 08:15 KPLU 210815Z AUTO 00000KT 1/4SM FG OVC002 03/03 A3004 RMK AO2
 
K0S9 - Port Townsend, Washington, USA
Distance from station: NW 38mi, 62km
Updated: 2018-10-21 01:15
Clear
Clear
 Wind from NW
Wind: NW 5 mph , 7 km/h
Temperature: 45°F , 7°C
Wind Chill: 42°F , 6°C
Dew Point: 45°F , 7°C
Humidity: 100%
Barometer: 30.05 inHg , 1017.6 hPa
Clouds: Clear
Visibility: 9 miles , 14 km
2018/10/21 08:15 K0S9 210815Z AUTO 32004KT 9SM CLR 07/07 A3005 RMK AO2
KAWO - Arlington Muni, Washington, USA
Distance from station: N 39mi, 63km
Updated: 2018-10-21 00:56
Fog, Overcast
Fog, Overcast
 Wind from calm
Wind: Calm
Temperature: 37°F , 3°C
Dew Point: 37°F , 3°C
Humidity: 100%
Barometer: 30.06 inHg , 1017.9 hPa
Summary: Fog
Clouds: Overcast
Visibility: 1/4 mile , 0.4 km
Cloud details: Overcast 100 ft
2018/10/21 07:56 KAWO 210756Z AUTO 00000KT 1/4SM FG OVC001 03/03 A3006 RMK AO2 SLP184 T00330033 401390011
 
KGRF - Fort Lewis/Gray, Washington, USA
Distance from station: SSW 39mi, 64km
Updated: 2018-10-21 00:58
Fog, Overcast
Fog, Overcast
 Wind from SE
Wind: SE 5 mph , 7 km/h
Temperature: 39°F , 4°C
Wind Chill: 35°F , 2°C
Dew Point: 39°F , 4°C
Humidity: 100%
Barometer: 30.04 inHg , 1017.3 hPa
Summary: Fog
Clouds: Overcast
Visibility: 1/4 mile , 0.4 km
Cloud details: Overcast 0 ft
2018/10/21 07:58 KGRF 210758Z 14004KT 1/4SM R15/1400FT FG VV000 04/04 A3004 RMK AO2A SLP178 T00360036 401550028 $
KSHN - Shelton, Washington, USA
Distance from station: SW 46mi, 75km
Updated: 2018-10-21 00:53
Fog, Overcast
Fog, Overcast
 Wind from calm
Wind: Calm
Temperature: 36°F , 2°C
Dew Point: 36°F , 2°C
Humidity: 100%
Barometer: 30.03 inHg , 1016.9 hPa
Summary: Fog
Clouds: Overcast
Visibility: 1/4 mile , 0.4 km
Cloud details: Overcast 100 ft
2018/10/21 07:53 KSHN 210753Z AUTO 00000KT 1/4SM FG VV001 02/02 A3003 RMK AO2 SLP171 T00220017 401220022